createdAt,value
2024-02-19T00:00:14.399Z,2.25
2024-02-19T00:02:41.655Z,2.95
2024-02-19T00:05:09.367Z,3.33
2024-02-19T00:07:36.479Z,3.65
2024-02-19T00:10:03.915Z,2.92
2024-02-19T00:12:30.716Z,3.08
2024-02-19T00:14:57.458Z,2.45
2024-02-19T00:17:24.294Z,3.05
2024-02-19T00:19:54.344Z,2.90
2024-02-19T00:22:21.193Z,3.25
2024-02-19T00:24:48.041Z,4.78
2024-02-19T00:27:15.165Z,2.80
2024-02-19T00:29:41.952Z,2.78
2024-02-19T00:32:08.816Z,3.97
2024-02-19T00:34:35.602Z,3.25
2024-02-19T00:37:06.306Z,3.83
2024-02-19T00:39:33.010Z,3.28
2024-02-19T00:41:59.803Z,3.45
2024-02-19T00:44:26.557Z,2.72
2024-02-19T00:46:53.264Z,4.47
2024-02-19T00:49:20.207Z,4.25
2024-02-19T00:51:47.284Z,3.47
2024-02-19T00:54:14.088Z,3.53
2024-02-19T00:56:40.878Z,3.40
2024-02-19T00:59:10.387Z,4.05
2024-02-19T01:01:37.520Z,3.75
2024-02-19T01:04:04.792Z,3.33
2024-02-19T01:06:31.785Z,4.80
2024-02-19T01:08:58.597Z,3.75
2024-02-19T01:11:25.538Z,3.75
2024-02-19T01:13:52.453Z,3.85
2024-02-19T01:16:19.467Z,3.58
2024-02-19T01:18:46.694Z,3.20
2024-02-19T01:21:13.592Z,3.50
2024-02-19T01:23:40.293Z,4.45
2024-02-19T01:26:07.036Z,2.88
2024-02-19T01:28:33.875Z,3.65
2024-02-19T01:31:00.751Z,3.85
2024-02-19T01:33:27.567Z,4.00
2024-02-19T01:35:54.707Z,3.47
2024-02-19T01:38:23.106Z,2.88
2024-02-19T01:40:49.854Z,2.65
2024-02-19T01:43:17.185Z,3.28
2024-02-19T01:45:44.111Z,2.83
2024-02-19T01:48:11.017Z,3.03
2024-02-19T01:50:42.000Z,2.78
2024-02-19T01:53:11.777Z,2.95
2024-02-19T01:55:39.753Z,4.22
2024-02-19T01:58:07.948Z,3.33
2024-02-19T02:00:35.494Z,3.05
2024-02-19T02:03:03.570Z,3.58
2024-02-19T02:05:30.481Z,2.97
2024-02-19T02:07:58.405Z,3.10
2024-02-19T02:10:25.277Z,3.25
2024-02-19T02:12:52.109Z,2.22
2024-02-19T02:15:18.973Z,2.72
2024-02-19T02:17:45.760Z,3.55
2024-02-19T02:20:14.091Z,2.90
2024-02-19T02:22:43.353Z,3.53
2024-02-19T02:25:10.951Z,3.70
2024-02-19T02:27:39.331Z,3.40
2024-02-19T02:30:07.634Z,2.60
2024-02-19T02:32:37.278Z,2.63
2024-02-19T02:35:04.554Z,2.83
2024-02-19T02:37:32.172Z,4.18
2024-02-19T02:39:58.989Z,2.80
2024-02-19T02:42:26.606Z,4.18
2024-02-19T02:44:53.552Z,3.15
2024-02-19T02:47:23.267Z,2.65
2024-02-19T02:49:50.076Z,2.53
2024-02-19T02:52:19.590Z,3.78
2024-02-19T02:54:46.515Z,2.97
2024-02-19T02:57:13.573Z,2.78
2024-02-19T02:59:41.063Z,2.58
2024-02-19T03:02:07.878Z,4.10
2024-02-19T03:04:34.791Z,3.38
2024-02-19T03:07:02.251Z,2.90
2024-02-19T03:09:29.489Z,3.80
2024-02-19T03:11:56.200Z,2.97
2024-02-19T03:14:23.174Z,3.45
2024-02-19T03:16:50.140Z,3.22
2024-02-19T03:19:17.712Z,2.33
2024-02-19T03:21:44.749Z,2.90
2024-02-19T03:24:11.491Z,3.50
2024-02-19T03:26:41.548Z,2.90
2024-02-19T03:29:14.322Z,2.47
2024-02-19T03:31:42.585Z,3.10
2024-02-19T03:34:09.618Z,3.55
2024-02-19T03:36:36.719Z,3.15
2024-02-19T03:39:05.231Z,3.08
2024-02-19T03:41:32.225Z,3.47
2024-02-19T03:44:00.420Z,2.67
2024-02-19T03:46:27.481Z,2.78
2024-02-19T03:48:56.607Z,3.20
2024-02-19T03:51:24.059Z,2.03
2024-02-19T03:53:51.355Z,3.67
2024-02-19T03:56:18.824Z,2.55
2024-02-19T03:58:45.877Z,2.42
2024-02-19T04:01:13.029Z,2.35
2024-02-19T04:03:40.266Z,2.45
2024-02-19T04:06:07.400Z,2.17
2024-02-19T04:08:34.604Z,3.20
2024-02-19T04:11:01.577Z,2.78
2024-02-19T04:13:28.332Z,2.70
2024-02-19T04:15:58.306Z,2.92
2024-02-19T04:18:25.375Z,3.00
2024-02-19T04:20:52.254Z,2.53
2024-02-19T04:23:19.027Z,2.95
2024-02-19T04:25:45.774Z,2.88
2024-02-19T04:28:13.038Z,3.63
2024-02-19T04:30:40.743Z,3.38
2024-02-19T04:33:07.687Z,2.63
2024-02-19T04:35:34.633Z,4.00
2024-02-19T04:38:01.484Z,3.55
2024-02-19T04:40:28.413Z,3.33
2024-02-19T04:42:55.280Z,3.47
2024-02-19T04:45:22.068Z,3.80
2024-02-19T04:47:49.116Z,3.33
2024-02-19T04:50:16.678Z,2.95
2024-02-19T04:52:43.625Z,4.43
2024-02-19T04:55:10.758Z,3.28
2024-02-19T04:57:37.823Z,3.50
2024-02-19T05:00:05.419Z,3.42
2024-02-19T05:02:32.177Z,2.90
2024-02-19T05:04:58.933Z,3.40
2024-02-19T05:07:25.818Z,2.55
2024-02-19T05:09:53.259Z,2.75
2024-02-19T05:12:20.008Z,2.88
2024-02-19T05:14:46.732Z,4.28
2024-02-19T05:17:13.831Z,4.20
2024-02-19T05:19:40.794Z,3.33
2024-02-19T05:22:07.823Z,3.78
2024-02-19T05:24:34.831Z,4.28
2024-02-19T05:27:01.574Z,3.95
2024-02-19T05:29:28.406Z,2.63
2024-02-19T05:31:55.351Z,4.93
2024-02-19T05:34:22.206Z,3.22
2024-02-19T05:36:49.209Z,4.45
2024-02-19T05:39:15.992Z,4.10
2024-02-19T05:41:45.936Z,4.07
2024-02-19T05:44:12.754Z,3.90
2024-02-19T05:46:39.957Z,3.85
2024-02-19T05:49:06.769Z,3.85
2024-02-19T05:51:33.660Z,4.30
2024-02-19T05:54:00.423Z,4.15
2024-02-19T05:56:27.886Z,4.20
2024-02-19T05:58:54.954Z,3.67
2024-02-19T06:01:22.008Z,3.92
2024-02-19T06:03:48.986Z,4.55
2024-02-19T06:06:15.755Z,3.40
2024-02-19T06:08:42.666Z,4.53
2024-02-19T06:11:09.495Z,4.45
2024-02-19T06:13:36.714Z,3.85
2024-02-19T06:16:03.678Z,4.40
2024-02-19T06:18:30.487Z,4.07
2024-02-19T06:20:57.358Z,3.40
2024-02-19T06:23:24.377Z,3.70
2024-02-19T06:25:51.147Z,3.58
2024-02-19T06:28:18.341Z,4.28
2024-02-19T06:30:45.402Z,3.03
2024-02-19T06:33:12.375Z,3.25
2024-02-19T06:35:39.733Z,4.35
2024-02-19T06:38:06.619Z,4.93
2024-02-19T06:40:35.905Z,3.45
2024-02-19T06:43:03.325Z,3.38
2024-02-19T06:45:30.209Z,2.75
2024-02-19T06:47:57.167Z,2.22
2024-02-19T06:50:24.076Z,2.40
2024-02-19T06:52:50.847Z,3.65
2024-02-19T06:55:24.620Z,2.30
2024-02-19T06:57:51.417Z,2.97
2024-02-19T07:00:18.768Z,2.47
2024-02-19T07:02:45.504Z,2.35
2024-02-19T07:05:12.471Z,1.60
2024-02-19T07:07:39.431Z,2.85
2024-02-19T07:10:07.066Z,2.35
2024-02-19T07:12:34.206Z,2.42
2024-02-19T07:15:00.975Z,2.50
2024-02-19T07:17:31.362Z,3.35
2024-02-19T07:19:59.808Z,2.47
2024-02-19T07:22:27.185Z,1.95
2024-02-19T07:25:05.473Z,2.78
2024-02-19T07:27:37.584Z,3.40
2024-02-19T07:30:04.732Z,2.33
2024-02-19T07:32:31.880Z,3.70
2024-02-19T07:34:58.893Z,2.22
2024-02-19T07:37:25.939Z,2.10
2024-02-19T07:39:52.894Z,1.75
2024-02-19T07:42:19.780Z,1.95
2024-02-19T07:44:46.527Z,2.17
2024-02-19T07:47:13.421Z,2.28
2024-02-19T07:49:40.396Z,2.58
2024-02-19T07:52:07.544Z,1.60
2024-02-19T07:54:34.584Z,1.73
2024-02-19T07:57:01.476Z,1.15
2024-02-19T07:59:28.373Z,4.38
2024-02-19T08:01:55.402Z,3.75
2024-02-19T08:04:28.127Z,2.72
2024-02-19T08:06:59.440Z,6.38
2024-02-19T08:09:27.889Z,3.67
2024-02-19T08:11:55.023Z,3.38
2024-02-19T08:14:22.060Z,7.22
2024-02-19T08:16:50.286Z,6.57
2024-02-19T08:19:18.085Z,10.88
2024-02-19T08:21:48.866Z,10.07
2024-02-19T08:24:16.028Z,4.57
2024-02-19T08:26:43.234Z,4.40
2024-02-19T08:29:11.450Z,3.15
2024-02-19T08:31:38.973Z,2.75
2024-02-19T08:34:06.219Z,2.05
2024-02-19T08:36:34.262Z,1.75
2024-02-19T08:39:04.561Z,2.47
2024-02-19T08:41:32.798Z,3.80
2024-02-19T08:43:59.791Z,3.00
2024-02-19T08:46:26.961Z,2.38
2024-02-19T08:48:55.542Z,2.97
2024-02-19T08:52:25.991Z,5.45
2024-02-19T08:54:52.998Z,1.55
2024-02-19T08:57:19.756Z,4.32
2024-02-19T08:59:50.331Z,5.75
2024-02-19T09:02:18.286Z,4.85
2024-02-19T09:04:46.498Z,5.93
2024-02-19T09:07:13.692Z,11.32
2024-02-19T09:09:44.247Z,3.67
2024-02-19T09:12:12.330Z,2.05
2024-02-19T09:14:39.538Z,2.20
2024-02-19T09:17:06.957Z,2.00
2024-02-19T09:19:33.884Z,1.95
2024-02-19T09:22:01.297Z,1.75
2024-02-19T09:24:28.227Z,1.90
2024-02-19T09:26:54.978Z,2.38
2024-02-19T09:29:57.752Z,3.53
2024-02-19T09:32:24.578Z,2.30
2024-02-19T09:34:52.175Z,2.08
2024-02-19T09:37:19.550Z,2.20
2024-02-19T09:39:50.984Z,2.58
2024-02-19T09:42:21.911Z,2.92
2024-02-19T09:44:49.380Z,2.20
2024-02-19T09:47:19.928Z,2.47
2024-02-19T09:49:49.831Z,2.47
2024-02-19T09:52:29.895Z,2.10
2024-02-19T09:54:58.895Z,2.28
2024-02-19T09:57:29.400Z,2.95
2024-02-19T09:59:59.504Z,1.08
2024-02-19T10:02:26.545Z,2.88
2024-02-19T10:04:53.664Z,2.22
2024-02-19T10:07:21.374Z,2.60
2024-02-19T10:09:49.391Z,2.42
2024-02-19T10:12:17.686Z,2.63
2024-02-19T10:14:44.957Z,2.58
2024-02-19T10:17:12.800Z,1.52
2024-02-19T10:19:41.349Z,2.10
2024-02-19T10:22:09.092Z,2.05
2024-02-19T10:24:37.130Z,1.52
2024-02-19T10:27:04.133Z,3.22
2024-02-19T10:29:31.704Z,2.45
2024-02-19T10:31:58.491Z,2.88
2024-02-19T10:34:26.102Z,2.25
2024-02-19T10:36:53.268Z,2.55
2024-02-19T10:39:20.323Z,2.45
2024-02-19T10:41:47.608Z,1.88
2024-02-19T10:44:17.279Z,3.30
2024-02-19T10:46:47.928Z,2.67
2024-02-19T10:49:20.623Z,1.52
2024-02-19T10:51:48.036Z,1.95
2024-02-19T10:54:19.526Z,3.10
2024-02-19T10:56:47.255Z,2.78
2024-02-19T10:59:16.205Z,2.53
2024-02-19T11:01:45.924Z,1.42
2024-02-19T11:04:17.222Z,2.03
2024-02-19T11:06:55.298Z,2.20
2024-02-19T11:09:31.159Z,1.65
2024-02-19T11:12:00.026Z,1.92
2024-02-19T11:14:32.264Z,1.90
2024-02-19T11:17:00.621Z,1.42
2024-02-19T11:19:29.018Z,1.55
2024-02-19T11:22:04.765Z,1.95
2024-02-19T11:24:32.727Z,2.65
2024-02-19T11:27:00.160Z,2.58
2024-02-19T11:29:33.602Z,2.30
2024-02-19T11:32:08.443Z,1.95
2024-02-19T11:34:37.010Z,1.98
2024-02-19T11:37:11.882Z,1.73
2024-02-19T11:39:41.075Z,1.42
2024-02-19T11:42:11.757Z,1.35
2024-02-19T11:44:42.252Z,3.67
2024-02-19T11:47:15.627Z,1.50
2024-02-19T11:49:43.637Z,2.30
2024-02-19T11:52:15.120Z,1.88
2024-02-19T11:54:43.103Z,2.42
2024-02-19T11:57:10.856Z,1.80
2024-02-19T11:59:37.949Z,1.77
2024-02-19T12:02:07.318Z,1.77
2024-02-19T12:04:38.312Z,2.28
2024-02-19T12:07:06.550Z,2.53
2024-02-19T12:09:33.569Z,2.55
2024-02-19T12:12:00.635Z,0.90
2024-02-19T12:14:27.746Z,0.98
2024-02-19T12:16:58.522Z,1.27
2024-02-19T12:19:26.741Z,1.55
2024-02-19T12:21:54.928Z,1.50
2024-02-19T12:24:22.048Z,1.15
2024-02-19T12:26:49.242Z,1.20
2024-02-19T12:29:16.117Z,0.85
2024-02-19T12:31:44.348Z,1.35
2024-02-19T12:34:11.697Z,0.90
2024-02-19T12:36:39.353Z,1.45
2024-02-19T12:39:11.063Z,1.00
2024-02-19T12:41:38.143Z,1.55
2024-02-19T12:44:05.139Z,1.52
2024-02-19T12:46:32.087Z,1.23
2024-02-19T12:49:00.243Z,0.80
2024-02-19T12:51:34.974Z,1.58
2024-02-19T12:54:02.524Z,2.10
2024-02-19T12:56:29.408Z,1.45
2024-02-19T12:58:56.804Z,1.52
2024-02-19T13:01:31.425Z,2.33
2024-02-19T13:04:01.028Z,1.90
2024-02-19T13:06:28.497Z,2.13
2024-02-19T13:08:55.615Z,2.60
2024-02-19T13:11:22.698Z,2.00
2024-02-19T13:13:49.546Z,0.90
2024-02-19T13:16:17.138Z,1.10
2024-02-19T13:18:44.196Z,1.42
2024-02-19T13:21:11.116Z,1.90
2024-02-19T13:23:37.822Z,1.10
2024-02-19T13:26:04.954Z,1.63
2024-02-19T13:28:35.143Z,2.15
2024-02-19T13:31:02.539Z,1.00
2024-02-19T13:33:30.934Z,1.90
2024-02-19T13:35:58.317Z,1.83
2024-02-19T13:38:26.829Z,1.42
2024-02-19T13:40:53.739Z,1.75
2024-02-19T13:43:20.674Z,1.35
2024-02-19T13:45:58.533Z,2.05
2024-02-19T13:48:29.495Z,1.40
2024-02-19T13:50:59.666Z,1.75
2024-02-19T13:53:31.322Z,1.50
2024-02-19T13:56:02.952Z,1.20
2024-02-19T13:58:30.486Z,2.10
2024-02-19T14:01:05.935Z,1.23
2024-02-19T14:03:33.291Z,2.17
2024-02-19T14:06:04.141Z,1.45
2024-02-19T14:08:31.244Z,1.45
2024-02-19T14:11:01.867Z,1.73
2024-02-19T14:13:42.936Z,1.40
2024-02-19T14:16:13.787Z,1.60
2024-02-19T14:18:41.042Z,1.20
2024-02-19T14:21:15.282Z,1.92
2024-02-19T14:23:42.316Z,1.75
2024-02-19T14:26:09.459Z,1.25
2024-02-19T14:28:37.141Z,1.70
2024-02-19T14:31:04.269Z,1.38
2024-02-19T14:33:31.349Z,1.67
2024-02-19T14:36:01.614Z,1.20
2024-02-19T14:38:28.729Z,1.70
2024-02-19T14:40:56.337Z,2.55
2024-02-19T14:43:23.896Z,2.20
2024-02-19T14:45:50.787Z,2.58
2024-02-19T14:48:17.819Z,1.85
2024-02-19T14:50:45.227Z,1.55
2024-02-19T14:53:15.759Z,1.85
2024-02-19T14:55:43.099Z,2.13
2024-02-19T14:58:10.637Z,1.65
2024-02-19T15:00:37.564Z,1.50
2024-02-19T15:03:06.197Z,1.80
2024-02-19T15:05:34.364Z,1.20
2024-02-19T15:08:01.828Z,2.30
2024-02-19T15:10:29.710Z,1.27
2024-02-19T15:12:57.858Z,1.33
2024-02-19T15:15:24.955Z,1.98
2024-02-19T15:17:52.079Z,2.03
2024-02-19T15:20:19.635Z,2.05
2024-02-19T15:22:47.827Z,1.58
2024-02-19T15:25:14.968Z,1.95
2024-02-19T15:27:41.773Z,2.10
2024-02-19T15:30:09.161Z,2.65
2024-02-19T15:32:35.965Z,1.80
2024-02-19T15:35:06.196Z,2.30
2024-02-19T15:37:34.161Z,1.48
2024-02-19T15:40:01.788Z,1.95
2024-02-19T15:42:28.699Z,1.98
2024-02-19T15:44:58.280Z,1.80
2024-02-19T15:47:27.001Z,1.77
2024-02-19T15:49:58.201Z,2.28
2024-02-19T15:52:26.867Z,1.95
2024-02-19T15:54:53.932Z,2.25
2024-02-19T15:57:22.484Z,2.35
2024-02-19T15:59:50.124Z,2.83
2024-02-19T16:02:16.902Z,2.13
2024-02-19T16:04:44.375Z,2.17
2024-02-19T16:07:11.527Z,1.80
2024-02-19T16:09:38.548Z,2.53
2024-02-19T16:12:07.418Z,2.35
2024-02-19T16:14:38.471Z,2.40
2024-02-19T16:17:06.032Z,2.08
2024-02-19T16:19:33.055Z,2.13
2024-02-19T16:22:00.286Z,2.10
2024-02-19T16:24:34.404Z,1.80
2024-02-19T16:27:02.338Z,2.13
2024-02-19T16:29:30.039Z,2.22
2024-02-19T16:31:57.457Z,1.63
2024-02-19T16:34:24.539Z,1.95
2024-02-19T16:36:51.573Z,3.25
2024-02-19T16:39:18.518Z,2.45
2024-02-19T16:41:45.361Z,2.25
2024-02-19T16:44:12.518Z,2.17
2024-02-19T16:46:39.549Z,1.70
2024-02-19T16:49:09.325Z,2.05
2024-02-19T16:51:45.145Z,2.22
2024-02-19T16:54:12.466Z,1.83
2024-02-19T16:56:39.399Z,1.58
2024-02-19T16:59:06.474Z,1.88
2024-02-19T17:01:35.111Z,1.58
2024-02-19T17:04:03.809Z,1.63
2024-02-19T17:06:31.181Z,2.17
2024-02-19T17:08:59.147Z,1.90
2024-02-19T17:11:26.478Z,1.85
2024-02-19T17:13:54.674Z,2.70
2024-02-19T17:16:24.022Z,2.55
2024-02-19T17:18:51.016Z,1.38
2024-02-19T21:23:29.927Z,2.63
2024-02-19T21:25:56.720Z,3.40
2024-02-19T21:28:23.431Z,3.65
2024-02-19T21:30:50.296Z,4.32
2024-02-19T21:33:17.399Z,3.03
2024-02-19T21:35:47.591Z,3.22
2024-02-19T21:38:14.473Z,3.90
2024-02-19T21:40:42.258Z,3.25
2024-02-19T21:43:09.133Z,3.88
2024-02-19T21:45:36.988Z,4.28
2024-02-19T21:48:05.936Z,4.03
2024-02-19T21:50:33.253Z,2.75
2024-02-19T21:53:03.563Z,3.38
2024-02-19T21:55:31.547Z,3.90
2024-02-19T21:57:59.363Z,4.50
2024-02-19T22:00:27.098Z,3.05
2024-02-19T22:02:53.958Z,3.67
2024-02-19T22:05:21.843Z,4.65
2024-02-19T22:07:49.128Z,3.40
2024-02-19T22:10:16.125Z,4.07
2024-02-19T22:12:44.072Z,3.55
2024-02-19T22:15:11.721Z,4.07
2024-02-19T22:17:38.567Z,3.42
2024-02-19T22:20:05.970Z,4.60
2024-02-19T22:22:36.010Z,3.47
2024-02-19T22:25:04.304Z,5.00
2024-02-19T22:27:31.886Z,3.05
2024-02-19T22:29:59.049Z,3.03
2024-02-19T22:32:26.002Z,3.20
2024-02-19T22:34:52.932Z,4.10
2024-02-19T22:37:19.888Z,4.55
2024-02-19T22:39:46.772Z,4.25
2024-02-19T22:42:13.753Z,4.30
2024-02-19T22:44:41.593Z,4.32
2024-02-19T22:47:08.490Z,3.33
2024-02-19T22:49:37.154Z,3.22
2024-02-19T22:52:04.740Z,3.80
2024-02-19T22:54:32.125Z,3.47
2024-02-19T22:56:59.595Z,3.42
2024-02-19T22:59:26.950Z,3.67
2024-02-19T23:01:54.393Z,3.13
2024-02-19T23:04:21.376Z,3.00
2024-02-19T23:06:49.295Z,3.83
2024-02-19T23:09:16.351Z,4.82
2024-02-19T23:11:43.374Z,2.75
2024-02-19T23:14:10.522Z,3.85
2024-02-19T23:16:37.296Z,3.92
2024-02-19T23:19:04.175Z,4.05
2024-02-19T23:21:31.047Z,3.25
2024-02-19T23:23:58.319Z,3.45
2024-02-19T23:26:25.084Z,3.53
2024-02-19T23:28:52.173Z,4.07
2024-02-19T23:31:19.119Z,3.60
2024-02-19T23:33:46.046Z,3.22
2024-02-19T23:36:12.988Z,3.80
2024-02-19T23:38:40.723Z,3.63
2024-02-19T23:41:07.514Z,4.10
2024-02-19T23:43:34.364Z,3.47
2024-02-19T23:46:01.241Z,4.40
2024-02-19T23:48:28.064Z,4.07
2024-02-19T23:50:55.424Z,3.28
2024-02-19T23:53:22.887Z,4.55
2024-02-19T23:55:49.721Z,4.43
2024-02-19T23:58:16.627Z,4.03
